Time;durP1;ratioP1;P1;durP2;ratioP2;P2;SDS_P1;SDS_P2;PMS_P1;PMS_P2;Temp;Humidity;BMP_temperature;BMP_pressure;BME280_temperature;BME280_humidity;BME280_pressure;Samples;Min_cycle;Max_cycle;Signal;HPM_P1;HPM_P2
2023/03/15 00:01:45;;;;;;;11.05;4.68;;;5.30;86.20;;;;;;5020403;28;20551;-75
2023/03/15 00:04:12;;;;;;;11.95;4.90;;;5.30;86.30;;;;;;5020921;28;20116;-75
2023/03/15 00:06:38;;;;;;;10.25;6.13;;;5.20;86.30;;;;;;5025171;28;20128;-75
2023/03/15 00:09:03;;;;;;;10.10;6.22;;;5.20;86.80;;;;;;5023124;28;20648;-75
2023/03/15 00:11:30;;;;;;;14.68;6.13;;;5.10;87.10;;;;;;5018636;28;20034;-76
2023/03/15 00:13:57;;;;;;;12.00;5.05;;;5.10;87.20;;;;;;5021805;28;20117;-76
2023/03/15 00:16:25;;;;;;;12.38;4.20;;;5.10;87.40;;;;;;5017696;28;20037;-75
2023/03/15 00:18:52;;;;;;;10.10;4.45;;;5.10;87.30;;;;;;5016671;28;20026;-78
2023/03/15 00:21:18;;;;;;;12.75;4.75;;;5.00;87.30;;;;;;5021362;28;20065;-75
2023/03/15 00:23:43;;;;;;;12.95;6.03;;;4.90;87.30;;;;;;5021264;28;20574;-76
2023/03/15 00:26:09;;;;;;;12.38;5.35;;;4.90;87.50;;;;;;5023020;28;20445;-75
2023/03/15 00:28:35;;;;;;;10.52;5.60;;;4.90;87.60;;;;;;5023845;28;20458;-75
2023/03/15 00:31:13;;;;;;;9.32;5.72;;;4.90;87.70;;;;;;5021513;28;20037;-75
2023/03/15 00:33:40;;;;;;;12.27;6.18;;;4.90;88.00;;;;;;5007288;28;20538;-76
2023/03/15 00:36:08;;;;;;;13.30;6.10;;;4.90;88.00;;;;;;5028384;28;20060;-74
2023/03/15 00:38:34;;;;;;;13.82;5.93;;;4.90;87.90;;;;;;5023391;28;20025;-74
2023/03/15 00:41:19;;;;;;;13.63;5.45;;;5.00;88.00;;;;;;5018116;28;20140;-76
2023/03/15 00:43:46;;;;;;;14.35;5.53;;;5.00;88.10;;;;;;5023550;28;20045;-74
2023/03/15 00:46:13;;;;;;;12.10;5.72;;;5.00;88.10;;;;;;5032320;28;20052;-75
2023/03/15 00:48:39;;;;;;;11.35;5.45;;;5.00;88.20;;;;;;5030652;28;20363;-74
2023/03/15 00:51:06;;;;;;;12.50;5.38;;;5.00;88.10;;;;;;5016751;28;20037;-77
2023/03/15 00:53:32;;;;;;;9.38;4.43;;;5.10;88.20;;;;;;5025351;28;20037;-75
2023/03/15 00:56:02;;;;;;;12.65;4.85;;;5.10;88.20;;;;;;5024920;28;20375;-74
2023/03/15 00:58:27;;;;;;;13.82;5.20;;;5.10;88.20;;;;;;5025354;28;20105;-74
2023/03/15 01:00:53;;;;;;;9.60;3.65;;;5.10;88.40;;;;;;5022229;28;20468;-74
2023/03/15 01:03:19;;;;;;;8.00;4.32;;;5.00;88.40;;;;;;5025213;28;20039;-75
2023/03/15 01:05:45;;;;;;;12.73;4.07;;;5.00;88.50;;;;;;5028019;28;20040;-74
2023/03/15 01:08:11;;;;;;;10.45;3.85;;;5.00;88.60;;;;;;5024910;28;20030;-74
2023/03/15 01:10:36;;;;;;;10.77;4.00;;;5.00;88.50;;;;;;5023741;28;20032;-75
2023/03/15 01:13:02;;;;;;;8.95;4.18;;;5.00;88.50;;;;;;5025278;28;20409;-75
2023/03/15 01:15:28;;;;;;;8.65;4.13;;;5.00;88.50;;;;;;5021539;28;20037;-76
2023/03/15 01:17:55;;;;;;;12.43;4.43;;;5.00;88.50;;;;;;5024309;28;20436;-74
2023/03/15 01:20:21;;;;;;;8.63;4.03;;;5.10;88.50;;;;;;5015067;28;20029;-74
2023/03/15 01:22:47;;;;;;;9.65;3.58;;;5.00;88.50;;;;;;5012593;28;20485;-76
2023/03/15 01:25:12;;;;;;;9.95;3.83;;;5.00;88.50;;;;;;5025332;28;20090;-76
2023/03/15 01:27:38;;;;;;;11.18;4.15;;;5.00;88.50;;;;;;5022580;28;20688;-76
2023/03/15 01:30:05;;;;;;;12.85;3.72;;;5.00;88.50;;;;;;5025452;28;20025;-76
2023/03/15 01:32:30;;;;;;;12.45;3.80;;;5.00;88.40;;;;;;5006619;28;20417;-76
2023/03/15 01:34:56;;;;;;;10.02;3.90;;;5.10;88.50;;;;;;5023678;28;20033;-75
2023/03/15 01:37:23;;;;;;;11.13;4.03;;;5.00;88.40;;;;;;5022013;28;20368;-75
2023/03/15 01:39:49;;;;;;;9.65;4.32;;;5.10;88.40;;;;;;5024122;28;20029;-77
2023/03/15 01:42:15;;;;;;;14.60;5.03;;;5.00;88.40;;;;;;5023316;28;20049;-75
2023/03/15 01:44:54;;;;;;;9.73;4.35;;;5.00;88.70;;;;;;5025545;28;20025;-76
2023/03/15 01:47:24;;;;;;;7.45;3.85;;;5.00;88.70;;;;;;5023412;28;20060;-75
2023/03/15 01:50:07;;;;;;;8.50;4.15;;;5.00;88.70;;;;;;5024211;28;20060;-75
2023/03/15 01:52:37;;;;;;;8.85;4.28;;;5.00;88.80;;;;;;5025050;28;20482;-75
2023/03/15 01:55:15;;;;;;;11.23;4.50;;;5.00;88.90;;;;;;5021018;28;20163;-74
2023/03/15 01:57:48;;;;;;;10.05;4.32;;;5.00;88.90;;;;;;5022707;28;20029;-75
2023/03/15 02:00:17;;;;;;;10.27;4.70;;;5.10;88.90;;;;;;5022680;28;20033;-75
2023/03/15 02:02:54;;;;;;;9.50;4.43;;;5.10;89.00;;;;;;5021605;28;20502;-76
2023/03/15 02:05:24;;;;;;;10.25;5.10;;;5.10;89.00;;;;;;5021526;28;20466;-75
2023/03/15 02:07:53;;;;;;;11.85;4.63;;;5.10;88.90;;;;;;5019456;28;20037;-74
2023/03/15 02:10:35;;;;;;;9.13;4.30;;;5.10;88.90;;;;;;5005648;28;20470;-76
2023/03/15 02:13:02;;;;;;;11.82;5.00;;;5.10;89.00;;;;;;5023143;28;20056;-75
2023/03/15 02:15:27;;;;;;;15.73;5.60;;;5.10;88.90;;;;;;5022860;28;20029;-76
2023/03/15 02:17:54;;;;;;;9.15;4.40;;;5.00;89.10;;;;;;5022709;28;20043;-77
2023/03/15 02:20:39;;;;;;;10.80;5.28;;;5.00;89.10;;;;;;5027840;28;20116;-75
2023/03/15 02:23:10;;;;;;;10.18;4.95;;;5.00;89.10;;;;;;5020526;28;20067;-75
2023/03/15 02:25:42;;;;;;;16.73;5.38;;;5.00;89.00;;;;;;5023083;28;20025;-74
2023/03/15 02:28:11;;;;;;;12.73;4.95;;;5.00;89.10;;;;;;5023946;28;20052;-75
2023/03/15 02:30:37;;;;;;;10.48;5.15;;;5.00;89.00;;;;;;5022161;28;20500;-76
2023/03/15 02:33:08;;;;;;;11.13;5.15;;;5.00;89.00;;;;;;5020449;28;20029;-75
2023/03/15 02:35:33;;;;;;;11.52;4.90;;;5.00;89.00;;;;;;5025664;28;20179;-76
2023/03/15 02:38:01;;;;;;;11.68;4.78;;;5.00;89.00;;;;;;5022922;28;20469;-76
2023/03/15 02:40:29;;;;;;;8.30;4.43;;;5.00;89.00;;;;;;5022572;28;20025;-76
2023/03/15 02:43:04;;;;;;;13.88;5.15;;;4.90;89.00;;;;;;5022573;28;20053;-75
2023/03/15 02:45:32;;;;;;;13.52;6.07;;;4.90;89.20;;;;;;5020550;28;20564;-75
2023/03/15 02:48:00;;;;;;;14.45;7.55;;;4.90;89.10;;;;;;5021387;28;20504;-76
2023/03/15 02:50:25;;;;;;;11.00;6.90;;;4.80;89.20;;;;;;5019642;28;20079;-75
2023/03/15 02:52:51;;;;;;;16.98;7.80;;;4.80;89.20;;;;;;5016953;28;20041;-74
2023/03/15 02:55:18;;;;;;;13.85;7.43;;;4.80;89.20;;;;;;5020789;28;20018;-76
2023/03/15 02:57:44;;;;;;;14.23;7.78;;;4.80;89.20;;;;;;5020721;28;20230;-74
2023/03/15 03:00:13;;;;;;;15.80;8.55;;;4.90;89.20;;;;;;5022089;28;20117;-76
2023/03/15 03:02:40;;;;;;;14.70;8.52;;;4.80;89.30;;;;;;5022045;28;20045;-76
2023/03/15 03:05:06;;;;;;;12.15;7.28;;;4.90;89.30;;;;;;5005333;28;20039;-75
2023/03/15 03:07:32;;;;;;;14.07;8.70;;;4.90;89.30;;;;;;5005884;28;20033;-75
2023/03/15 03:09:58;;;;;;;19.63;10.57;;;4.90;89.30;;;;;;5033049;28;20025;-77
2023/03/15 03:12:23;;;;;;;16.83;10.50;;;4.90;89.30;;;;;;5004906;28;20037;-76
2023/03/15 03:14:49;;;;;;;18.23;13.00;;;4.90;89.30;;;;;;5024779;28;20116;-75
2023/03/15 03:17:15;;;;;;;18.27;14.48;;;4.90;89.40;;;;;;5023527;28;20076;-76
2023/03/15 03:19:40;;;;;;;20.85;12.73;;;4.90;89.40;;;;;;5019472;28;20466;-77
2023/03/15 03:22:06;;;;;;;17.67;10.32;;;4.90;89.30;;;;;;5020136;28;20049;-76
2023/03/15 03:24:32;;;;;;;14.80;10.57;;;4.90;89.40;;;;;;5022010;28;20033;-75
2023/03/15 03:26:58;;;;;;;15.25;9.65;;;4.90;89.30;;;;;;5021419;28;20046;-73
2023/03/15 03:29:25;;;;;;;13.80;7.35;;;4.90;89.20;;;;;;5020307;28;20441;-76
2023/03/15 03:31:50;;;;;;;14.40;7.35;;;4.80;89.00;;;;;;5020436;28;20461;-75
2023/03/15 03:34:17;;;;;;;11.35;7.22;;;4.80;89.10;;;;;;5020156;28;20033;-74
2023/03/15 03:36:43;;;;;;;11.50;6.25;;;4.80;89.00;;;;;;5020989;28;20042;-74
2023/03/15 03:39:09;;;;;;;11.35;5.88;;;4.80;88.90;;;;;;5020624;28;20037;-74
2023/03/15 03:41:35;;;;;;;11.65;4.70;;;4.80;88.90;;;;;;5020132;28;20474;-75
2023/03/15 03:44:01;;;;;;;9.80;4.22;;;4.80;88.90;;;;;;5022100;28;20037;-75
2023/03/15 03:46:27;;;;;;;9.48;4.30;;;4.80;88.90;;;;;;5017939;28;20056;-74
2023/03/15 03:48:53;;;;;;;9.20;4.32;;;4.70;88.70;;;;;;5022758;28;20030;-76
2023/03/15 03:51:20;;;;;;;6.75;3.55;;;4.70;88.70;;;;;;5019680;28;20037;-74
2023/03/15 03:53:45;;;;;;;8.82;3.55;;;4.60;88.60;;;;;;5021841;28;20048;-75
2023/03/15 03:56:11;;;;;;;8.73;3.67;;;4.60;88.70;;;;;;5020230;28;20041;-75
2023/03/15 03:58:37;;;;;;;7.65;3.30;;;4.60;88.70;;;;;;5026484;28;20040;-74
2023/03/15 04:01:03;;;;;;;6.97;3.55;;;4.60;88.60;;;;;;5021085;28;20544;-74
2023/03/15 04:03:29;;;;;;;7.25;3.75;;;4.50;88.60;;;;;;5026575;28;20108;-74
2023/03/15 04:05:57;;;;;;;5.50;3.47;;;4.50;88.50;;;;;;5016784;28;20394;-74
2023/03/15 04:08:24;;;;;;;9.15;3.60;;;4.50;88.50;;;;;;5018605;28;20024;-77
2023/03/15 04:10:55;;;;;;;8.02;3.20;;;4.50;88.50;;;;;;5021416;28;20037;-76
2023/03/15 04:13:22;;;;;;;6.65;3.00;;;4.60;88.60;;;;;;5021595;28;20048;-75
2023/03/15 04:15:47;;;;;;;8.95;3.83;;;4.60;88.60;;;;;;5025156;28;20560;-76
2023/03/15 04:18:14;;;;;;;7.00;3.40;;;4.60;88.60;;;;;;5021520;28;20109;-75
2023/03/15 04:20:45;;;;;;;5.50;3.38;;;4.60;88.70;;;;;;5021435;28;20087;-75
2023/03/15 04:23:14;;;;;;;9.38;3.72;;;4.60;88.60;;;;;;5018038;28;20038;-75
2023/03/15 04:25:41;;;;;;;8.43;3.53;;;4.70;88.60;;;;;;5021710;28;20034;-75
2023/03/15 04:28:09;;;;;;;8.63;3.78;;;4.60;88.60;;;;;;5019197;28;20076;-75
2023/03/15 04:30:35;;;;;;;9.95;3.83;;;4.60;88.50;;;;;;5016743;28;20079;-74
2023/03/15 04:33:02;;;;;;;7.75;3.80;;;4.60;88.60;;;;;;5021355;28;20132;-74
2023/03/15 04:35:33;;;;;;;9.18;4.03;;;4.60;88.70;;;;;;5021455;28;20144;-75
2023/03/15 04:37:59;;;;;;;7.70;4.18;;;4.50;88.70;;;;;;5001474;28;20056;-75
2023/03/15 04:40:25;;;;;;;5.90;3.38;;;4.40;88.90;;;;;;5021602;28;20048;-75
2023/03/15 04:42:54;;;;;;;12.07;4.05;;;4.40;88.90;;;;;;5019622;28;20168;-74
2023/03/15 04:45:22;;;;;;;8.27;4.20;;;4.30;89.00;;;;;;5021245;28;20024;-74
2023/03/15 04:47:51;;;;;;;8.48;4.35;;;4.20;89.10;;;;;;5020217;28;20069;-75
2023/03/15 04:50:18;;;;;;;8.30;4.00;;;4.20;89.20;;;;;;5021992;28;20018;-75
2023/03/15 04:52:43;;;;;;;8.43;3.97;;;4.20;89.20;;;;;;5019034;28;20141;-75
2023/03/15 04:55:10;;;;;;;10.30;4.20;;;4.10;89.40;;;;;;5021860;28;20550;-75
2023/03/15 04:57:36;;;;;;;9.45;5.07;;;4.10;89.40;;;;;;5020967;28;20103;-76
2023/03/15 05:00:06;;;;;;;9.60;4.63;;;4.00;89.60;;;;;;5019430;28;20386;-75
2023/03/15 05:02:32;;;;;;;10.02;4.72;;;4.00;89.70;;;;;;5021701;28;20155;-76
2023/03/15 05:04:58;;;;;;;9.02;4.70;;;3.90;89.80;;;;;;5003671;28;20039;-76
2023/03/15 05:07:23;;;;;;;9.20;4.35;;;3.90;89.80;;;;;;5019266;28;20460;-75
2023/03/15 05:09:49;;;;;;;8.75;5.00;;;3.90;89.90;;;;;;5018677;28;20462;-75
2023/03/15 05:12:15;;;;;;;7.32;4.70;;;3.80;89.90;;;;;;4997282;28;20456;-74
2023/03/15 05:14:41;;;;;;;7.85;4.65;;;3.80;90.00;;;;;;5032150;28;20430;-76
2023/03/15 05:17:07;;;;;;;10.48;5.47;;;3.80;90.10;;;;;;5027243;28;20622;-74
2023/03/15 05:19:35;;;;;;;9.95;5.72;;;3.80;90.20;;;;;;5022456;28;20148;-75
2023/03/15 05:22:02;;;;;;;9.93;5.32;;;3.70;90.20;;;;;;5023799;28;20117;-75
2023/03/15 05:24:28;;;;;;;11.40;6.25;;;3.70;90.20;;;;;;5020410;28;20069;-74
2023/03/15 05:26:54;;;;;;;11.55;7.25;;;3.60;90.20;;;;;;5020746;28;20145;-75
2023/03/15 05:29:21;;;;;;;12.05;7.25;;;3.60;90.20;;;;;;5027462;28;20124;-75
2023/03/15 05:31:48;;;;;;;10.90;6.88;;;3.60;90.30;;;;;;5021933;28;20037;-74
2023/03/15 05:34:14;;;;;;;11.23;7.55;;;3.60;90.30;;;;;;5021311;28;20042;-74
2023/03/15 05:36:40;;;;;;;14.20;8.57;;;3.60;90.40;;;;;;5018620;28;20466;-74
2023/03/15 05:39:06;;;;;;;14.50;10.10;;;3.50;90.50;;;;;;5020088;28;20021;-73
2023/03/15 05:41:32;;;;;;;13.98;9.85;;;3.60;90.60;;;;;;5017481;28;20350;-74
2023/03/15 05:43:58;;;;;;;13.43;9.77;;;3.60;90.60;;;;;;5021747;28;20047;-75
2023/03/15 05:46:24;;;;;;;13.07;9.05;;;3.60;90.50;;;;;;4997919;28;20050;-74
2023/03/15 05:48:50;;;;;;;12.75;8.95;;;3.60;90.40;;;;;;5002569;28;20026;-75
2023/03/15 05:51:16;;;;;;;13.23;8.65;;;3.60;90.40;;;;;;4998424;28;20114;-73
2023/03/15 05:53:41;;;;;;;12.80;7.88;;;3.60;90.50;;;;;;5001535;28;20044;-75
2023/03/15 05:56:07;;;;;;;12.00;8.00;;;3.70;90.40;;;;;;4998180;28;20393;-75
2023/03/15 05:58:34;;;;;;;13.32;8.18;;;3.70;90.50;;;;;;4998552;28;20160;-76
2023/03/15 06:01:01;;;;;;;11.73;7.40;;;3.70;90.50;;;;;;5002624;28;20165;-75
2023/03/15 06:03:27;;;;;;;13.18;7.78;;;3.70;90.40;;;;;;5001307;28;20088;-76
2023/03/15 06:05:52;;;;;;;13.70;7.70;;;3.70;90.30;;;;;;5002934;28;20026;-75
2023/03/15 06:08:18;;;;;;;13.05;7.90;;;3.70;90.30;;;;;;4999693;28;20072;-76
2023/03/15 06:10:44;;;;;;;12.68;8.13;;;3.70;90.30;;;;;;4997619;28;20056;-75
2023/03/15 06:13:10;;;;;;;12.95;7.70;;;3.70;90.30;;;;;;4994622;28;20524;-74
2023/03/15 06:15:35;;;;;;;14.05;8.00;;;3.70;90.40;;;;;;4997147;28;20454;-76
2023/03/15 06:18:01;;;;;;;10.55;7.50;;;3.60;90.30;;;;;;4994864;28;20026;-75
2023/03/15 06:20:27;;;;;;;13.75;8.10;;;3.60;90.30;;;;;;4997474;28;20903;-76
2023/03/15 06:22:53;;;;;;;13.40;8.10;;;3.60;90.40;;;;;;4993755;28;20125;-75
2023/03/15 06:25:18;;;;;;;15.02;8.30;;;3.60;90.50;;;;;;4997049;28;20351;-76
2023/03/15 06:27:45;;;;;;;12.13;6.90;;;3.60;90.50;;;;;;4998432;28;20422;-77
2023/03/15 06:30:11;;;;;;;13.43;7.60;;;3.60;90.40;;;;;;4997006;28;20030;-75
2023/03/15 06:32:36;;;;;;;11.32;7.22;;;3.60;90.40;;;;;;4998995;28;20042;-75
2023/03/15 06:35:03;;;;;;;11.35;7.97;;;3.60;90.50;;;;;;5002770;28;20169;-77
2023/03/15 06:37:29;;;;;;;12.90;7.28;;;3.70;90.80;;;;;;5000194;28;20033;-75
2023/03/15 06:39:55;;;;;;;14.13;6.88;;;3.80;90.70;;;;;;5002221;28;20033;-75
2023/03/15 06:42:21;;;;;;;12.20;6.35;;;3.90;90.70;;;;;;5000838;28;20462;-75
2023/03/15 06:44:46;;;;;;;11.20;6.70;;;4.10;90.70;;;;;;5000650;28;20093;-77
2023/03/15 06:47:12;;;;;;;10.73;6.10;;;4.50;90.10;;;;;;5011006;28;20045;-77
2023/03/15 06:49:38;;;;;;;10.80;5.28;;;4.80;89.50;;;;;;5020717;28;20044;-80
2023/03/15 06:52:04;;;;;;;10.10;5.68;;;5.40;88.50;;;;;;5029953;28;20048;-85
2023/03/15 06:54:30;;;;;;;12.32;6.90;;;5.70;86.60;;;;;;5022757;28;20074;-80
2023/03/15 06:56:56;;;;;;;10.93;6.80;;;5.60;84.90;;;;;;5017237;28;20086;-82
2023/03/15 06:59:22;;;;;;;11.57;7.03;;;5.30;85.10;;;;;;5029419;28;20026;-79
2023/03/15 07:01:48;;;;;;;12.70;6.75;;;5.20;85.60;;;;;;5023054;28;20037;-83
2023/03/15 07:04:14;;;;;;;14.07;8.35;;;5.10;85.70;;;;;;5023110;28;20070;-84
2023/03/15 07:06:40;;;;;;;13.73;7.45;;;4.90;86.00;;;;;;5020892;28;20033;-79
2023/03/15 07:09:05;;;;;;;11.63;6.60;;;4.80;86.50;;;;;;5022409;28;20610;-86
2023/03/15 07:11:31;;;;;;;12.80;6.70;;;4.80;86.80;;;;;;5021789;28;20034;-84
2023/03/15 07:13:57;;;;;;;10.70;7.05;;;4.80;87.10;;;;;;5026294;28;20044;-79
2023/03/15 07:16:23;;;;;;;17.45;7.95;;;4.70;87.30;;;;;;5027640;28;20072;-82
2023/03/15 07:18:49;;;;;;;12.27;7.55;;;4.70;87.50;;;;;;5027491;28;20021;-81
2023/03/15 07:21:15;;;;;;;14.68;7.57;;;4.70;87.50;;;;;;5027535;28;20392;-83
2023/03/15 07:23:41;;;;;;;15.60;8.18;;;4.70;87.70;;;;;;5021629;28;20052;-76
2023/03/15 07:26:06;;;;;;;15.40;8.55;;;4.60;87.70;;;;;;5022795;28;20048;-75
2023/03/15 07:28:32;;;;;;;13.88;8.60;;;4.60;87.90;;;;;;5031054;28;20045;-76
2023/03/15 07:31:00;;;;;;;19.05;11.07;;;4.60;88.00;;;;;;5030194;28;20595;-83
2023/03/15 07:33:28;;;;;;;15.45;11.13;;;4.60;88.20;;;;;;5009986;28;20040;-80
2023/03/15 07:35:54;;;;;;;19.70;11.30;;;4.60;88.40;;;;;;5019379;28;20617;-81
2023/03/15 07:38:22;;;;;;;18.15;13.38;;;4.60;88.50;;;;;;5021880;28;20035;-84
2023/03/15 07:40:48;;;;;;;20.38;13.07;;;4.70;88.60;;;;;;5018467;28;20548;-79
2023/03/15 07:43:14;;;;;;;19.15;11.73;;;4.80;88.90;;;;;;5025327;28;20245;-82
2023/03/15 07:45:40;;;;;;;21.65;11.73;;;4.80;88.80;;;;;;5025626;28;20025;-81
2023/03/15 07:48:06;;;;;;;15.43;10.57;;;4.90;88.80;;;;;;5025967;28;20031;-82
2023/03/15 07:50:31;;;;;;;16.23;11.70;;;5.00;88.60;;;;;;5024820;28;20038;-85
2023/03/15 07:52:57;;;;;;;15.10;9.82;;;5.00;88.70;;;;;;5027140;28;20494;-78
2023/03/15 07:55:24;;;;;;;15.70;9.55;;;5.10;88.70;;;;;;5026220;28;20044;-79
2023/03/15 07:57:50;;;;;;;15.23;9.70;;;5.20;88.50;;;;;;5019406;28;20037;-80
2023/03/15 08:00:17;;;;;;;19.90;10.00;;;5.30;88.10;;;;;;5022050;28;20029;-79
2023/03/15 08:02:43;;;;;;;14.18;8.38;;;5.40;87.70;;;;;;5021299;28;20060;-82
2023/03/15 08:05:09;;;;;;;13.35;8.38;;;5.50;87.30;;;;;;5020673;28;20037;-80
2023/03/15 08:07:35;;;;;;;13.68;8.90;;;5.60;87.20;;;;;;5020944;28;20056;-81
2023/03/15 08:10:04;;;;;;;14.23;8.70;;;5.70;86.80;;;;;;5020776;28;20454;-81
2023/03/15 08:12:30;;;;;;;13.25;7.75;;;5.90;86.10;;;;;;5001429;28;20034;-80
2023/03/15 08:14:56;;;;;;;15.02;7.55;;;6.00;85.70;;;;;;5007022;28;20025;-78
2023/03/15 08:17:21;;;;;;;12.60;8.25;;;6.10;85.70;;;;;;5021611;28;20410;-81
2023/03/15 08:19:47;;;;;;;11.93;7.40;;;6.30;85.10;;;;;;5020717;28;20041;-77
2023/03/15 08:22:13;;;;;;;12.55;7.88;;;6.50;84.70;;;;;;5023182;28;20038;-78
2023/03/15 08:24:38;;;;;;;10.88;6.95;;;6.60;83.50;;;;;;5024954;28;20044;-83
2023/03/15 08:27:04;;;;;;;11.25;7.13;;;6.70;82.50;;;;;;5026321;28;20037;-78
2023/03/15 08:29:30;;;;;;;11.68;6.53;;;6.90;81.70;;;;;;5000977;28;20390;-79
2023/03/15 08:31:56;;;;;;;12.43;5.65;;;6.90;80.90;;;;;;5020813;28;20029;-77
2023/03/15 08:34:22;;;;;;;11.27;5.90;;;7.00;79.40;;;;;;5020333;28;20175;-77
2023/03/15 08:36:48;;;;;;;10.65;5.63;;;7.00;78.20;;;;;;5026182;28;20038;-83
2023/03/15 08:39:14;;;;;;;11.57;5.85;;;7.10;78.00;;;;;;5020356;28;20044;-82
2023/03/15 08:41:42;;;;;;;10.32;5.72;;;7.10;76.90;;;;;;5026759;28;20194;-77
2023/03/15 08:44:08;;;;;;;13.52;5.65;;;7.30;77.80;;;;;;5033456;28;20033;-81
2023/03/15 08:46:34;;;;;;;9.00;4.90;;;7.60;77.30;;;;;;5044112;28;20049;-76
2023/03/15 08:49:00;;;;;;;11.15;5.60;;;7.70;75.70;;;;;;5051392;28;20090;-75
2023/03/15 08:51:27;;;;;;;8.60;3.50;;;7.60;75.00;;;;;;5051766;28;20024;-78
2023/03/15 08:53:52;;;;;;;8.32;4.10;;;7.60;72.80;;;;;;5036488;28;20042;-81
2023/03/15 08:56:18;;;;;;;11.30;5.00;;;7.60;71.40;;;;;;5031187;28;20034;-79
2023/03/15 08:58:44;;;;;;;10.05;4.90;;;7.90;72.60;;;;;;5025660;28;20128;-78
2023/03/15 09:01:11;;;;;;;10.00;4.63;;;8.10;71.80;;;;;;5014832;28;20087;-78
2023/03/15 09:03:37;;;;;;;11.25;5.05;;;8.10;70.90;;;;;;5024165;28;20041;-88
2023/03/15 09:06:03;;;;;;;8.05;4.32;;;7.90;71.50;;;;;;5030229;28;20143;-79
2023/03/15 09:08:32;;;;;;;10.60;4.43;;;7.80;69.40;;;;;;5028202;28;20026;-88
2023/03/15 09:10:58;;;;;;;9.40;4.28;;;7.70;72.00;;;;;;5028975;28;20030;-83
2023/03/15 09:13:25;;;;;;;10.77;3.90;;;7.90;69.80;;;;;;5027024;28;20228;-78
2023/03/15 09:15:52;;;;;;;9.35;4.15;;;8.30;69.00;;;;;;5028972;28;20033;-87
2023/03/15 09:18:19;;;;;;;8.05;4.82;;;8.70;68.10;;;;;;5032680;28;20032;-81
2023/03/15 09:20:44;;;;;;;9.77;4.40;;;9.20;67.30;;;;;;5029075;28;20083;-80
2023/03/15 09:23:10;;;;;;;11.30;4.28;;;9.60;65.40;;;;;;5012570;28;20041;-87
2023/03/15 09:25:36;;;;;;;8.27;3.70;;;9.60;64.70;;;;;;5026803;28;20085;-78
2023/03/15 09:28:07;;;;;;;6.97;3.88;;;9.20;62.30;;;;;;5027040;28;20105;-82
2023/03/15 09:30:35;;;;;;;6.65;3.58;;;9.40;62.70;;;;;;5023686;28;20021;-82
2023/03/15 09:33:00;;;;;;;7.25;4.10;;;9.80;64.20;;;;;;5025962;28;20044;-85
2023/03/15 09:35:26;;;;;;;8.57;4.80;;;10.10;63.30;;;;;;5031914;28;20021;-83
2023/03/15 09:37:52;;;;;;;10.13;4.40;;;10.10;63.20;;;;;;5035528;28;20025;-84
2023/03/15 09:40:28;;;;;;;6.97;3.72;;;10.00;62.90;;;;;;5035139;28;20040;-86
2023/03/15 09:43:06;;;;;;;8.77;3.88;;;10.10;62.40;;;;;;5036176;28;20061;-79
2023/03/15 09:46:00;;;;;;;8.57;4.00;;;9.70;60.50;;;;;;5037532;28;20085;-76
2023/03/15 09:48:52;;;;;;;9.63;4.32;;;9.50;62.10;;;;;;5040360;28;20024;-84
2023/03/15 09:51:30;;;;;;;10.48;4.38;;;9.40;64.80;;;;;;5024794;28;20052;-79
2023/03/15 09:54:02;;;;;;;8.73;4.38;;;9.00;64.00;;;;;;5024449;28;20109;-80
2023/03/15 09:56:44;;;;;;;7.45;4.15;;;8.80;64.30;;;;;;5026733;28;20036;-79
2023/03/15 09:59:12;;;;;;;9.60;4.50;;;8.70;64.40;;;;;;5030060;28;20052;-81
2023/03/15 10:01:40;;;;;;;7.60;4.15;;;8.60;64.70;;;;;;5031528;28;20068;-80
2023/03/15 10:04:39;;;;;;;9.15;4.25;;;8.50;65.50;;;;;;5029437;28;20638;-84
2023/03/15 10:07:10;;;;;;;7.75;4.00;;;8.40;66.10;;;;;;5044702;28;20037;-75
2023/03/15 10:09:36;;;;;;;7.45;3.95;;;8.20;65.60;;;;;;5048405;28;20017;-77
2023/03/15 10:12:10;;;;;;;8.23;3.90;;;8.10;65.60;;;;;;5043149;28;20029;-76
2023/03/15 10:14:51;;;;;;;9.45;3.92;;;8.10;65.90;;;;;;5031998;28;20065;-77
2023/03/15 10:17:55;;;;;;;9.13;4.60;;;8.00;66.20;;;;;;5031159;28;20072;-76
2023/03/15 10:20:26;;;;;;;7.57;4.53;;;8.00;65.90;;;;;;5036415;28;20041;-80
2023/03/15 10:23:10;;;;;;;8.82;4.32;;;8.00;66.30;;;;;;5033817;28;20509;-75
2023/03/15 10:25:37;;;;;;;8.73;3.97;;;8.00;66.70;;;;;;5034601;28;20030;-77
2023/03/15 10:28:08;;;;;;;7.68;4.25;;;7.90;65.20;;;;;;5030736;28;20437;-79
2023/03/15 10:30:36;;;;;;;7.60;4.20;;;8.00;65.20;;;;;;5042871;28;20056;-75
2023/03/15 10:33:15;;;;;;;7.95;4.20;;;7.90;65.50;;;;;;5040725;28;20572;-86
2023/03/15 10:35:41;;;;;;;9.98;4.15;;;7.90;65.90;;;;;;5026317;28;20036;-82
2023/03/15 10:38:15;;;;;;;7.78;4.07;;;7.90;66.60;;;;;;5035277;28;20040;-76
2023/03/15 10:40:55;;;;;;;9.80;4.55;;;7.90;67.30;;;;;;5022831;28;20056;-77
2023/03/15 10:43:23;;;;;;;9.02;4.53;;;7.90;66.70;;;;;;5031922;28;20056;-82
2023/03/15 10:46:06;;;;;;;7.63;4.13;;;7.80;67.20;;;;;;5028672;28;20042;-82
2023/03/15 10:48:37;;;;;;;10.43;4.97;;;7.90;67.30;;;;;;5030355;28;20049;-81
2023/03/15 10:51:17;;;;;;;8.38;4.10;;;8.30;67.70;;;;;;5024971;28;20033;-80
2023/03/15 10:54:03;;;;;;;8.98;4.25;;;8.80;66.80;;;;;;5025030;28;20057;-80
2023/03/15 10:56:41;;;;;;;9.23;3.80;;;9.10;61.20;;;;;;5020870;28;20494;-78
2023/03/15 10:59:16;;;;;;;5.95;3.40;;;9.20;60.70;;;;;;5026207;28;20021;-76
2023/03/15 11:01:46;;;;;;;6.88;3.08;;;9.70;61.30;;;;;;5024357;28;20026;-78
2023/03/15 11:04:12;;;;;;;7.07;3.55;;;9.90;59.50;;;;;;5030009;28;20441;-77
2023/03/15 11:07:01;;;;;;;7.38;3.47;;;9.90;60.90;;;;;;5002270;28;20046;-75
2023/03/15 11:09:40;;;;;;;7.28;3.70;;;9.90;61.30;;;;;;5014955;28;20449;-80
2023/03/15 11:12:09;;;;;;;7.13;3.72;;;9.70;60.50;;;;;;5027929;28;20101;-81
2023/03/15 11:14:39;;;;;;;7.20;3.65;;;9.60;61.50;;;;;;5025272;28;20113;-85
2023/03/15 11:17:07;;;;;;;6.78;3.80;;;9.60;60.90;;;;;;5021829;28;20041;-83
2023/03/15 11:19:40;;;;;;;6.95;3.58;;;9.80;59.10;;;;;;5024839;28;20025;-78
2023/03/15 11:22:11;;;;;;;8.73;4.95;;;10.10;56.60;;;;;;5018168;28;20041;-78
2023/03/15 11:24:38;;;;;;;9.90;3.72;;;10.30;58.20;;;;;;5023570;28;20022;-79
2023/03/15 11:27:13;;;;;;;8.55;3.83;;;9.90;58.50;;;;;;5021067;28;20037;-85
2023/03/15 11:29:45;;;;;;;7.60;3.80;;;9.90;58.10;;;;;;5016894;28;20037;-76
2023/03/15 11:32:26;;;;;;;10.27;4.47;;;9.90;60.40;;;;;;5021114;28;20026;-78
2023/03/15 11:35:02;;;;;;;12.30;6.32;;;9.90;59.30;;;;;;5022700;28;20025;-77
2023/03/15 11:37:55;;;;;;;10.25;4.80;;;10.00;58.40;;;;;;5020769;28;20132;-78
2023/03/15 11:40:35;;;;;;;8.80;4.18;;;10.20;58.10;;;;;;4998769;28;20385;-80
2023/03/15 11:43:10;;;;;;;6.50;3.85;;;10.40;58.60;;;;;;5024635;28;20609;-83
2023/03/15 11:45:36;;;;;;;6.20;3.13;;;10.60;55.90;;;;;;5025965;28;20041;-83
2023/03/15 11:48:46;;;;;;;7.07;3.25;;;10.90;55.60;;;;;;5022248;28;20017;-76
2023/03/15 11:51:12;;;;;;;6.38;2.90;;;11.00;52.00;;;;;;5014118;28;20508;-77
2023/03/15 11:53:51;;;;;;;7.45;3.00;;;11.10;52.00;;;;;;4998721;28;20033;-81
2023/03/15 11:56:26;;;;;;;6.55;3.15;;;11.40;50.40;;;;;;5022584;28;20065;-84
2023/03/15 11:59:12;;;;;;;6.75;3.47;;;11.50;50.00;;;;;;5018524;28;20079;-83
2023/03/15 12:01:44;;;;;;;6.68;3.28;;;11.30;50.00;;;;;;5022255;28;20505;-78
2023/03/15 12:04:31;;;;;;;6.82;3.50;;;11.30;51.20;;;;;;5023142;28;20466;-82
2023/03/15 12:07:23;;;;;;;9.57;4.15;;;11.20;52.00;;;;;;5024033;28;20049;-79
2023/03/15 12:09:57;;;;;;;6.55;4.20;;;11.40;53.10;;;;;;5024247;28;20021;-83
2023/03/15 12:12:23;;;;;;;8.98;3.90;;;11.60;54.50;;;;;;5023395;28;20037;-79
2023/03/15 12:15:14;;;;;;;6.13;3.20;;;11.80;51.70;;;;;;5026474;28;20025;-82
2023/03/15 12:17:50;;;;;;;9.10;3.70;;;11.70;50.20;;;;;;5028123;28;20037;-76
2023/03/15 12:20:17;;;;;;;7.00;3.30;;;11.80;50.30;;;;;;5012421;28;20025;-84
2023/03/15 12:23:14;;;;;;;5.13;2.97;;;11.90;50.70;;;;;;5034259;28;20030;-79
2023/03/15 12:25:56;;;;;;;6.28;2.97;;;11.90;49.00;;;;;;5018382;28;20639;-78
2023/03/15 12:28:27;;;;;;;8.55;3.80;;;11.60;50.30;;;;;;5032543;28;20027;-77
2023/03/15 12:30:57;;;;;;;5.00;3.00;;;11.60;51.60;;;;;;5030644;28;20029;-85
2023/03/15 12:33:24;;;;;;;7.93;3.58;;;11.40;51.20;;;;;;5023228;28;20371;-77
2023/03/15 12:35:57;;;;;;;7.07;2.90;;;11.60;50.30;;;;;;5025880;28;20045;-76
2023/03/15 12:38:23;;;;;;;7.25;3.17;;;11.50;50.70;;;;;;5027724;28;20034;-79
2023/03/15 12:40:56;;;;;;;5.70;3.03;;;11.70;49.60;;;;;;5025251;28;20179;-80
2023/03/15 12:43:45;;;;;;;6.25;2.60;;;11.60;49.50;;;;;;5022394;28;20084;-81
2023/03/15 12:46:35;;;;;;;5.07;2.90;;;11.70;49.20;;;;;;5017425;28;20041;-80
2023/03/15 12:49:10;;;;;;;4.88;3.00;;;12.10;49.70;;;;;;5027484;28;20105;-76
2023/03/15 12:51:55;;;;;;;7.55;3.50;;;12.10;50.20;;;;;;5025215;28;20120;-76
2023/03/15 12:54:47;;;;;;;8.18;2.88;;;12.10;49.10;;;;;;5021760;28;20371;-74
2023/03/15 12:57:16;;;;;;;10.38;2.90;;;12.10;48.30;;;;;;5023180;28;20473;-74
2023/03/15 12:59:48;;;;;;;6.18;2.85;;;12.30;49.80;;;;;;5029679;28;20025;-75
2023/03/15 13:02:24;;;;;;;7.50;2.55;;;12.30;49.70;;;;;;5022439;28;20037;-74